createdAt,value
2019-04-11T00:00:33.067Z,0
2019-04-11T00:01:36.656Z,0
2019-04-11T00:02:29.196Z,0
2019-04-11T00:03:27.881Z,0
2019-04-11T00:04:26.412Z,0
2019-04-11T00:05:25.017Z,0
2019-04-11T00:06:23.674Z,0
2019-04-11T00:07:22.474Z,0
2019-04-11T00:10:02.383Z,0
2019-04-11T00:11:01.750Z,0
2019-04-11T00:11:59.946Z,0
2019-04-11T00:12:59.044Z,0
2019-04-11T00:13:57.747Z,0
2019-04-11T00:14:55.963Z,0
2019-04-11T00:15:54.975Z,0
2019-04-11T00:16:53.330Z,0
2019-04-11T00:17:52.327Z,0
2019-04-11T00:18:51.057Z,0
2019-04-11T00:19:48.545Z,0
2019-04-11T00:20:47.218Z,0
2019-04-11T00:21:46.750Z,0
2019-04-11T00:38:32.046Z,0
2019-04-11T00:39:30.594Z,0
2019-04-11T00:40:29.289Z,0
2019-04-11T00:41:28.126Z,0
2019-04-11T00:42:26.401Z,0
2019-04-11T00:43:31.478Z,0
2019-04-11T00:44:23.707Z,0
2019-04-11T00:45:23.313Z,0
2019-04-11T00:46:22.362Z,0
2019-04-11T00:47:20.668Z,0
2019-04-11T00:48:19.666Z,0
2019-04-11T00:49:17.190Z,0
2019-04-11T00:50:16.166Z,0
2019-04-11T00:51:16.110Z,0
2019-04-11T00:52:14.236Z,0
2019-04-11T00:53:12.159Z,0
2019-04-11T00:54:10.862Z,0
2019-04-11T00:55:09.399Z,0
2019-04-11T00:56:08.150Z,0
2019-04-11T00:57:06.634Z,0
2019-04-11T00:58:05.535Z,0
2019-04-11T00:59:03.732Z,0
2019-04-11T01:00:02.868Z,0
2019-04-11T01:01:01.729Z,0
2019-04-11T01:01:59.411Z,0
2019-04-11T01:02:58.001Z,0
2019-04-11T01:03:56.477Z,0
2019-04-11T01:04:55.068Z,0
2019-04-11T01:05:53.991Z,0
2019-04-11T01:06:52.276Z,0
2019-04-11T01:07:51.265Z,0
2019-04-11T01:08:49.531Z,0
2019-04-11T01:09:48.564Z,0
2019-04-11T01:10:47.776Z,0
2019-04-11T01:11:45.784Z,0
2019-04-11T01:12:44.860Z,0
2019-04-11T01:13:49.039Z,0
2019-04-11T01:14:41.098Z,0
2019-04-11T01:15:40.778Z,0
2019-04-11T01:16:38.870Z,0
2019-04-11T01:17:37.117Z,0
2019-04-11T01:18:36.164Z,0
2019-04-11T01:19:35.112Z,0
2019-04-11T01:20:32.861Z,0
2019-04-11T01:21:32.714Z,0
2019-04-11T01:22:30.129Z,0
2019-04-11T01:23:29.153Z,0
2019-04-11T01:24:28.118Z,0
2019-04-11T01:25:25.757Z,0
2019-04-11T01:26:25.346Z,0
2019-04-11T01:27:23.694Z,0
2019-04-11T01:28:22.664Z,0
2019-04-11T01:29:20.367Z,0
2019-04-11T01:30:18.909Z,0
2019-04-11T01:31:17.764Z,0
2019-04-11T01:32:16.213Z,0
2019-04-11T01:33:15.720Z,0
2019-04-11T01:34:13.337Z,0
2019-04-11T01:35:12.985Z,0
2019-04-11T01:36:11.173Z,0
2019-04-11T01:37:09.237Z,0
2019-04-11T01:38:08.267Z,0
2019-04-11T01:39:06.295Z,0
2019-04-11T01:40:05.507Z,0
2019-04-11T01:41:04.474Z,0
2019-04-11T01:42:02.728Z,0
2019-04-11T01:43:01.794Z,0
2019-04-11T01:44:03.670Z,0
2019-04-11T01:44:57.967Z,0
2019-04-11T01:45:56.503Z,0
2019-04-11T01:46:55.993Z,0
2019-04-11T01:47:53.633Z,0
2019-04-11T01:48:52.183Z,0
2019-04-11T01:49:50.702Z,0
2019-04-11T01:50:50.345Z,0
2019-04-11T01:51:47.855Z,0
2019-04-11T01:52:46.657Z,0
2019-04-11T01:53:45.018Z,0
2019-04-11T01:54:43.856Z,0
2019-04-11T01:55:42.879Z,0
2019-04-11T01:56:41.145Z,0
2019-04-11T01:57:40.236Z,0
2019-04-11T01:58:38.467Z,0
2019-04-11T01:59:37.517Z,0
2019-04-11T02:00:36.289Z,0
2019-04-11T02:01:33.817Z,0
2019-04-11T02:02:32.655Z,0
2019-04-11T02:03:31.125Z,0
2019-04-11T02:04:30.105Z,0
2019-04-11T02:05:29.329Z,0
2019-04-11T02:06:26.981Z,0
2019-04-11T02:07:26.756Z,0
2019-04-11T02:08:25.020Z,0
2019-04-11T02:09:24.077Z,0
2019-04-11T02:10:21.487Z,0
2019-04-11T02:11:20.009Z,0
2019-04-11T02:12:19.723Z,0
2019-04-11T02:13:17.510Z,0
2019-04-11T02:14:17.781Z,0
2019-04-11T02:15:14.432Z,0
2019-04-11T02:16:13.210Z,0
2019-04-11T02:17:12.561Z,0
2019-04-11T02:18:10.945Z,0
2019-04-11T02:19:09.817Z,0
2019-04-11T02:20:07.532Z,0
2019-04-11T02:21:06.307Z,0
2019-04-11T02:22:04.668Z,0
2019-04-11T02:23:04.543Z,0
2019-04-11T02:24:02.153Z,0
2019-04-11T02:25:00.688Z,0
2019-04-11T02:25:59.325Z,0
2019-04-11T02:26:58.718Z,0
2019-04-11T02:27:56.522Z,0
2019-04-11T02:28:55.278Z,0
2019-04-11T02:29:53.724Z,0
2019-04-11T02:30:54.068Z,0
2019-04-11T02:31:51.244Z,0
2019-04-11T02:32:49.871Z,0
2019-04-11T02:33:48.899Z,0
2019-04-11T02:34:48.050Z,0
2019-04-11T02:35:46.964Z,0
2019-04-11T02:36:44.908Z,0
2019-04-11T02:37:44.221Z,0
2019-04-11T02:38:41.393Z,0
2019-04-11T02:39:40.903Z,0
2019-04-11T02:40:38.706Z,0
2019-04-11T02:41:38.031Z,0
2019-04-11T02:42:35.805Z,0
2019-04-11T02:43:34.960Z,0
2019-04-11T02:44:50.711Z,0
2019-04-11T02:45:44.951Z,0
2019-04-11T02:46:38.122Z,0
2019-04-11T02:47:32.374Z,0
2019-04-11T02:48:28.767Z,0
2019-04-11T02:49:27.753Z,0
2019-04-11T02:50:26.452Z,0
2019-04-11T02:51:24.732Z,0
2019-04-11T02:52:22.890Z,0
2019-04-11T02:53:21.236Z,0
2019-04-11T02:54:21.664Z,0
2019-04-11T02:55:19.083Z,0
2019-04-11T02:56:17.379Z,0
2019-04-11T02:57:16.268Z,0
2019-04-11T02:58:14.494Z,0
2019-04-11T02:59:13.460Z,0
2019-04-11T03:00:12.554Z,0
2019-04-11T03:01:10.353Z,0
2019-04-11T03:02:09.025Z,0
2019-04-11T03:03:08.369Z,0
2019-04-11T03:04:06.644Z,0
2019-04-11T03:05:05.332Z,0
2019-04-11T03:06:02.722Z,0
2019-04-11T03:07:00.706Z,0
2019-04-11T03:08:00.742Z,0
2019-04-11T03:08:59.277Z,0
2019-04-11T03:09:56.790Z,0
2019-04-11T03:10:55.686Z,0
2019-04-11T03:11:54.622Z,0
2019-04-11T03:12:52.726Z,0
2019-04-11T03:13:52.565Z,0
2019-04-11T03:15:09.038Z,0
2019-04-11T03:15:59.118Z,0
2019-04-11T03:16:57.212Z,0
2019-04-11T03:17:46.564Z,0
2019-04-11T03:18:58.787Z,0
2019-04-11T03:19:57.761Z,0
2019-04-11T03:20:48.034Z,0
2019-04-11T03:21:42.301Z,0
2019-04-11T03:22:38.526Z,0
2019-04-11T03:23:37.381Z,0
2019-04-11T03:24:35.979Z,0
2019-04-11T03:25:34.164Z,0
2019-04-11T03:26:33.551Z,0
2019-04-11T03:27:32.510Z,0
2019-04-11T03:28:31.226Z,0
2019-04-11T03:29:29.290Z,0
2019-04-11T03:30:41.987Z,0
2019-04-11T03:32:01.658Z,0
2019-04-11T03:33:16.037Z,0
2019-04-11T03:34:11.736Z,0
2019-04-11T03:35:08.842Z,0
2019-04-11T03:36:06.571Z,0
2019-04-11T03:37:05.893Z,0
2019-04-11T03:37:42.721Z,0
2019-04-11T03:38:36.300Z,0
2019-04-11T03:41:09.838Z,0
2019-04-11T03:42:09.330Z,0
2019-04-11T03:43:05.342Z,0
2019-04-11T03:44:00.183Z,0
2019-04-11T03:45:11.098Z,0
2019-04-11T03:46:07.977Z,0
2019-04-11T03:47:04.437Z,0
2019-04-11T03:48:01.575Z,0
2019-04-11T03:50:15.270Z,0
2019-04-11T03:51:08.804Z,0
2019-04-11T03:52:08.622Z,0
2019-04-11T03:53:06.996Z,0
2019-04-11T03:54:04.949Z,0
2019-04-11T03:55:04.332Z,0
2019-04-11T03:56:01.587Z,0
2019-04-11T03:57:00.805Z,0
2019-04-11T03:57:59.284Z,0
2019-04-11T04:01:20.980Z,0
2019-04-11T04:02:20.238Z,0
2019-04-11T04:03:18.209Z,0
2019-04-11T04:04:18.916Z,0
2019-04-11T04:05:15.252Z,0
2019-04-11T04:06:12.978Z,0
2019-04-11T04:07:13.076Z,0
2019-04-11T04:08:10.846Z,0
2019-04-11T04:09:08.903Z,0
2019-04-11T04:10:09.241Z,0
2019-04-11T04:11:06.054Z,0
2019-04-11T04:12:04.967Z,0
2019-04-11T04:13:04.772Z,0
2019-04-11T04:14:02.193Z,0
2019-04-11T04:15:01.403Z,0
2019-04-11T04:16:07.269Z,0
2019-04-11T04:16:59.737Z,0
2019-04-11T04:17:57.262Z,0
2019-04-11T04:18:56.294Z,0
2019-04-11T04:19:54.240Z,0
2019-04-11T04:20:53.091Z,0
2019-04-11T04:21:51.085Z,0
2019-04-11T04:22:49.907Z,0
2019-04-11T04:23:49.472Z,0
2019-04-11T04:24:47.382Z,0
2019-04-11T04:25:47.085Z,0
2019-04-11T04:26:43.614Z,0
2019-04-11T04:27:42.907Z,0
2019-04-11T04:28:40.962Z,0
2019-04-11T04:29:39.179Z,0
2019-04-11T04:30:38.845Z,0
2019-04-11T04:31:36.466Z,0
2019-04-11T04:32:36.202Z,0
2019-04-11T04:33:35.993Z,0
2019-04-11T04:34:33.779Z,0
2019-04-11T04:35:31.665Z,0
2019-04-11T04:36:30.897Z,0
2019-04-11T04:37:29.545Z,0
2019-04-11T04:38:27.284Z,0
2019-04-11T04:39:27.271Z,0
2019-04-11T04:40:40.866Z,0
2019-04-11T04:41:33.262Z,0
2019-04-11T04:42:27.035Z,0
2019-04-11T04:43:20.306Z,0
2019-04-11T04:44:19.076Z,0
2019-04-11T04:45:17.191Z,0
2019-04-11T04:46:29.312Z,5
2019-04-11T04:47:22.024Z,5
2019-04-11T04:48:16.376Z,5
2019-04-11T04:49:13.107Z,5
2019-04-11T04:50:11.021Z,5
2019-04-11T04:51:11.222Z,5
2019-04-11T04:52:09.332Z,5
2019-04-11T04:53:07.346Z,5
2019-04-11T04:54:05.868Z,5
2019-04-11T04:55:04.430Z,5
2019-04-11T04:56:02.638Z,10
2019-04-11T04:57:01.008Z,10
2019-04-11T04:57:59.720Z,10
2019-04-11T04:58:58.830Z,10
2019-04-11T04:59:57.814Z,10
2019-04-11T05:00:56.622Z,10
2019-04-11T05:01:55.420Z,15
2019-04-11T05:02:52.528Z,15
2019-04-11T05:03:51.209Z,15
2019-04-11T05:04:49.985Z,15
2019-04-11T05:05:48.610Z,15
2019-04-11T05:06:48.746Z,15
2019-04-11T05:07:46.807Z,20
2019-04-11T05:08:45.090Z,20
2019-04-11T05:09:43.038Z,20
2019-04-11T05:10:41.539Z,20
2019-04-11T05:11:40.227Z,20
2019-04-11T05:12:38.914Z,25
2019-04-11T05:13:38.776Z,25
2019-04-11T05:14:37.217Z,25
2019-04-11T05:15:34.772Z,25
2019-04-11T05:16:33.434Z,25
2019-04-11T05:17:32.374Z,30
2019-04-11T05:18:30.547Z,30
2019-04-11T05:19:29.988Z,30
2019-04-11T05:20:28.153Z,35
2019-04-11T05:21:27.508Z,35
2019-04-11T05:22:24.888Z,35
2019-04-11T05:23:23.638Z,35
2019-04-11T05:24:22.865Z,35
2019-04-11T05:25:22.167Z,35
2019-04-11T05:26:19.638Z,40
2019-04-11T05:27:18.255Z,40
2019-04-11T05:29:58.540Z,45
2019-04-11T05:30:57.018Z,45
2019-04-11T05:31:56.709Z,45
2019-04-11T05:32:55.598Z,45
2019-04-11T05:33:53.882Z,45
2019-04-11T05:36:33.384Z,45
2019-04-11T05:37:31.794Z,45
2019-04-11T05:38:30.348Z,50
2019-04-11T05:39:29.089Z,50
2019-04-11T05:40:28.137Z,55
2019-04-11T05:41:26.388Z,55
2019-04-11T05:42:26.923Z,55
2019-04-11T05:43:26.728Z,55
2019-04-11T05:44:22.877Z,55
2019-04-11T05:45:23.189Z,55
2019-04-11T05:46:30.885Z,55
2019-04-11T05:47:19.726Z,55
2019-04-11T05:48:17.788Z,55
2019-04-11T05:49:15.549Z,60
2019-04-11T05:50:14.225Z,60
2019-04-11T05:51:13.034Z,60
2019-04-11T05:52:12.274Z,60
2019-04-11T05:53:10.041Z,60
2019-04-11T05:54:09.491Z,60
2019-04-11T05:55:10.536Z,60
2019-04-11T05:56:07.061Z,60
2019-04-11T05:57:04.862Z,65
2019-04-11T05:58:07.735Z,65
2019-04-11T05:59:02.213Z,65
2019-04-11T06:00:00.812Z,65
2019-04-11T06:00:59.816Z,65
2019-04-11T06:02:01.422Z,65
2019-04-11T06:02:57.495Z,65
2019-04-11T06:03:55.704Z,65
2019-04-11T06:04:56.065Z,65
2019-04-11T06:05:55.048Z,65
2019-04-11T06:06:52.725Z,65
2019-04-11T06:07:51.713Z,65
2019-04-11T06:08:48.658Z,65
2019-04-11T06:09:48.185Z,70
2019-04-11T06:10:46.571Z,70
2019-04-11T06:11:45.275Z,70
2019-04-11T06:12:43.504Z,70
2019-04-11T06:13:42.764Z,70
2019-04-11T06:14:40.321Z,75
2019-04-11T06:15:39.528Z,75
2019-04-11T06:16:43.463Z,75
2019-04-11T06:17:36.505Z,75
2019-04-11T06:18:37.480Z,75
2019-04-11T06:19:33.475Z,75
2019-04-11T06:20:31.963Z,75
2019-04-11T06:21:31.670Z,75
2019-04-11T06:22:29.695Z,80
2019-04-11T06:23:27.671Z,80
2019-04-11T06:24:26.349Z,80
2019-04-11T06:25:25.760Z,80
2019-04-11T06:26:24.669Z,80
2019-04-11T06:27:22.209Z,80
2019-04-11T06:28:20.651Z,80
2019-04-11T06:29:23.172Z,80
2019-04-11T06:30:17.988Z,85
2019-04-11T06:31:16.556Z,85
2019-04-11T06:32:15.880Z,85
2019-04-11T06:33:13.737Z,85
2019-04-11T06:35:54.538Z,90
2019-04-11T06:36:52.983Z,90
2019-04-11T06:37:52.160Z,95
2019-04-11T06:38:51.149Z,95
2019-04-11T06:39:48.656Z,95
2019-04-11T06:40:48.108Z,95
2019-04-11T06:41:46.485Z,95
2019-04-11T06:59:30.244Z,110
2019-04-11T07:00:29.291Z,110
2019-04-11T07:01:27.970Z,110
2019-04-11T07:02:26.333Z,110
2019-04-11T07:03:27.410Z,110
2019-04-11T07:04:23.466Z,110
2019-04-11T07:05:22.567Z,110
2019-04-11T07:06:21.720Z,110
2019-04-11T07:07:20.464Z,110
2019-04-11T07:08:18.095Z,110
2019-04-11T07:09:16.680Z,110
2019-04-11T07:10:15.255Z,110
2019-04-11T07:11:14.052Z,110
2019-04-11T07:12:13.357Z,110
2019-04-11T07:13:12.064Z,110
2019-04-11T07:14:10.284Z,110
2019-04-11T07:15:08.452Z,110
2019-04-11T07:16:06.987Z,110
2019-04-11T07:17:07.816Z,110
2019-04-11T07:18:05.907Z,110
2019-04-11T07:19:02.887Z,105
2019-04-11T07:20:02.445Z,110
2019-04-11T07:21:00.619Z,110
2019-04-11T07:21:58.447Z,110
2019-04-11T07:22:57.546Z,110
2019-04-11T07:23:56.057Z,105
2019-04-11T07:24:55.233Z,105
2019-04-11T07:25:53.877Z,105
2019-04-11T07:26:52.139Z,105
2019-04-11T07:27:50.704Z,105
2019-04-11T07:28:50.115Z,105
2019-04-11T07:29:48.488Z,105
2019-04-11T07:30:47.293Z,105
2019-04-11T07:31:45.899Z,105
2019-04-11T07:32:43.399Z,105
2019-04-11T07:33:43.138Z,105
2019-04-11T07:34:40.593Z,105
2019-04-11T07:35:39.863Z,105
2019-04-11T07:36:38.355Z,100
2019-04-11T07:37:36.807Z,100
2019-04-11T07:38:34.845Z,100
2019-04-11T07:39:33.678Z,100
2019-04-11T07:40:33.264Z,100
2019-04-11T07:41:31.666Z,100
2019-04-11T07:42:30.772Z,100
2019-04-11T07:43:27.631Z,100
2019-04-11T07:44:28.435Z,100
2019-04-11T07:45:25.322Z,100
2019-04-11T07:46:24.969Z,100
2019-04-11T07:47:24.667Z,100
2019-04-11T07:50:02.396Z,100
2019-04-11T07:51:01.925Z,100
2019-04-11T07:53:24.048Z,90
2019-04-11T07:54:22.576Z,90
2019-04-11T07:55:21.285Z,90
2019-04-11T07:56:20.822Z,90
2019-04-11T07:57:19.265Z,90
2019-04-11T07:58:16.986Z,90
2019-04-11T07:59:15.542Z,90
2019-04-11T08:00:15.019Z,90
2019-04-11T08:01:12.701Z,90
2019-04-11T08:02:12.342Z,85
2019-04-11T08:03:10.035Z,85
2019-04-11T08:04:08.536Z,85
2019-04-11T08:05:07.124Z,85
2019-04-11T08:06:05.924Z,85
2019-04-11T08:07:04.498Z,85
2019-04-11T08:08:05.143Z,85
2019-04-11T08:09:02.664Z,85
2019-04-11T08:10:00.366Z,85
2019-04-11T08:15:39.626Z,80
2019-04-11T08:18:04.575Z,80
2019-04-11T08:19:03.585Z,80
2019-04-11T08:20:02.899Z,80
2019-04-11T08:21:01.674Z,80
2019-04-11T08:21:58.999Z,80
2019-04-11T08:24:40.512Z,80
2019-04-11T08:25:38.028Z,80
2019-04-11T08:26:36.549Z,80
2019-04-11T08:29:32.333Z,80
2019-04-11T08:30:30.931Z,80
2019-04-11T08:31:30.626Z,80
2019-04-11T08:32:28.010Z,80
2019-04-11T08:33:26.756Z,80
2019-04-11T08:34:25.228Z,80
2019-04-11T08:35:24.069Z,80
2019-04-11T08:36:22.452Z,80
2019-04-11T08:37:21.224Z,75
2019-04-11T08:38:20.352Z,80
2019-04-11T08:39:18.475Z,75
2019-04-11T08:40:17.660Z,75
2019-04-11T08:41:15.612Z,75
2019-04-11T08:42:14.969Z,75
2019-04-11T08:43:12.950Z,75
2019-04-11T08:44:11.956Z,75
2019-04-11T08:45:09.874Z,75
2019-04-11T08:46:08.773Z,75
2019-04-11T08:47:07.832Z,75
2019-04-11T08:48:05.774Z,75
2019-04-11T08:49:05.556Z,75
2019-04-11T08:50:03.917Z,75
2019-04-11T08:51:01.559Z,75
2019-04-11T08:53:42.788Z,75
2019-04-11T08:54:41.678Z,75
2019-04-11T08:55:48.090Z,75
2019-04-11T08:56:39.027Z,75
2019-04-11T08:57:36.418Z,75
2019-04-11T08:58:34.984Z,75
2019-04-11T08:59:33.693Z,75
2019-04-11T09:00:33.087Z,75
2019-04-11T09:01:31.873Z,75
2019-04-11T09:02:29.320Z,75
2019-04-11T09:03:27.876Z,75
2019-04-11T09:04:26.439Z,75
2019-04-11T09:05:25.032Z,75
2019-04-11T09:06:24.604Z,75
2019-04-11T09:07:22.251Z,75
2019-04-11T09:09:45.536Z,75
2019-04-11T09:10:44.270Z,75
2019-04-11T09:11:42.340Z,75
2019-04-11T09:12:40.719Z,70
2019-04-11T09:13:39.712Z,70
2019-04-11T09:14:38.114Z,70
2019-04-11T09:15:37.049Z,70
2019-04-11T09:16:35.308Z,70
2019-04-11T09:17:34.448Z,70
2019-04-11T09:18:32.505Z,70
2019-04-11T09:19:31.041Z,70
2019-04-11T09:20:29.876Z,70
2019-04-11T09:21:28.632Z,70
2019-04-11T09:22:27.023Z,65
2019-04-11T09:23:25.891Z,65
2019-04-11T09:24:24.208Z,65
2019-04-11T09:25:23.243Z,65
2019-04-11T09:26:21.427Z,65
2019-04-11T09:27:20.452Z,65
2019-04-11T09:28:19.651Z,65
2019-04-11T09:29:17.698Z,65
2019-04-11T09:30:17.380Z,65
2019-04-11T09:31:15.344Z,65
2019-04-11T09:32:13.270Z,65
2019-04-11T09:33:12.884Z,65
2019-04-11T09:34:11.269Z,65
2019-04-11T09:35:09.953Z,65
2019-04-11T09:36:07.953Z,65
2019-04-11T09:37:06.400Z,65
2019-04-11T09:38:06.305Z,65
2019-04-11T09:39:04.558Z,65
2019-04-11T09:40:03.575Z,65
2019-04-11T09:41:00.822Z,65
2019-04-11T09:41:59.406Z,65
2019-04-11T09:42:57.949Z,65
2019-04-11T09:43:56.582Z,65
2019-04-11T09:44:55.297Z,60
2019-04-11T09:45:54.294Z,60
2019-04-11T09:46:52.677Z,60
2019-04-11T09:47:51.902Z,60
2019-04-11T09:48:50.500Z,60
2019-04-11T09:49:48.468Z,60
2019-04-11T09:50:47.002Z,60
2019-04-11T09:51:45.527Z,60
2019-04-11T09:52:45.213Z,60
2019-04-11T09:53:42.975Z,60
2019-04-11T09:54:42.027Z,60
2019-04-11T09:55:39.710Z,60
2019-04-11T09:56:39.574Z,60
2019-04-11T09:57:36.839Z,60
2019-04-11T09:58:35.726Z,60
2019-04-11T09:59:34.163Z,60
2019-04-11T10:00:32.699Z,60
2019-04-11T10:01:31.366Z,60
2019-04-11T10:02:31.003Z,60
2019-04-11T10:03:28.585Z,60
2019-04-11T10:04:27.601Z,60
2019-04-11T10:05:26.478Z,60
2019-04-11T10:06:24.304Z,60
2019-04-11T10:07:23.747Z,60
2019-04-11T10:08:22.449Z,60
2019-04-11T10:09:19.915Z,60
2019-04-11T10:10:19.020Z,60
2019-04-11T10:11:17.666Z,60
2019-04-11T10:12:15.905Z,60
2019-04-11T10:13:14.283Z,60
2019-04-11T10:14:13.465Z,60
2019-04-11T10:15:13.415Z,60
2019-04-11T10:16:11.595Z,60
2019-04-11T10:17:09.196Z,60
2019-04-11T10:18:19.511Z,60
2019-04-11T10:19:07.556Z,55
2019-04-11T10:20:06.289Z,60
2019-04-11T10:21:04.792Z,60
2019-04-11T10:22:02.766Z,60
2019-04-11T10:23:01.911Z,55
2019-04-11T10:24:00.927Z,55
2019-04-11T10:24:58.893Z,55
2019-04-11T10:25:56.670Z,55
2019-04-11T10:26:56.269Z,55
2019-04-11T10:27:53.765Z,60
2019-04-11T10:28:53.309Z,60
2019-04-11T10:29:50.873Z,55
2019-04-11T10:30:50.367Z,55
2019-04-11T10:31:48.159Z,55
2019-04-11T10:32:47.598Z,55
2019-04-11T10:33:45.420Z,55
2019-04-11T10:34:44.160Z,55
2019-04-11T10:35:42.860Z,55
2019-04-11T10:36:41.276Z,55
2019-04-11T10:37:40.133Z,55
2019-04-11T10:38:38.409Z,55
2019-04-11T10:39:37.506Z,55
2019-04-11T10:40:36.441Z,55
2019-04-11T10:41:34.428Z,60
2019-04-11T10:42:33.001Z,60
2019-04-11T10:43:32.044Z,60
2019-04-11T10:44:30.260Z,60
2019-04-11T10:45:28.895Z,60
2019-04-11T10:46:27.400Z,60
2019-04-11T10:47:26.975Z,60
2019-04-11T10:48:34.436Z,60
2019-04-11T10:49:23.072Z,60
2019-04-11T10:50:21.779Z,60
2019-04-11T10:51:20.581Z,60
2019-04-11T10:52:18.767Z,60
2019-04-11T10:53:17.959Z,60
2019-04-11T10:54:16.074Z,60
2019-04-11T10:55:15.569Z,60
2019-04-11T10:56:13.878Z,60
2019-04-11T10:57:12.109Z,60
2019-04-11T10:58:10.906Z,60
2019-04-11T10:59:09.225Z,60
2019-04-11T11:00:07.749Z,55
2019-04-11T11:01:07.500Z,60
2019-04-11T11:02:04.966Z,60
2019-04-11T11:03:04.038Z,60
2019-04-11T11:04:03.266Z,60
2019-04-11T11:05:01.092Z,55
2019-04-11T11:05:59.697Z,60
2019-04-11T11:06:58.230Z,60
2019-04-11T11:07:57.144Z,60
2019-04-11T11:08:55.502Z,55
2019-04-11T11:09:54.644Z,60
2019-04-11T11:10:52.487Z,55
2019-04-11T11:11:51.181Z,60
2019-04-11T11:12:50.001Z,55
2019-04-11T11:13:48.566Z,60
2019-04-11T11:14:47.185Z,60
2019-04-11T11:15:45.861Z,60
2019-04-11T11:16:45.502Z,60
2019-04-11T11:17:56.937Z,65
2019-04-11T11:19:14.819Z,65
2019-04-11T11:19:49.646Z,60
2019-04-11T11:20:43.457Z,55
2019-04-11T11:21:37.444Z,60
2019-04-11T11:22:38.662Z,60
2019-04-11T11:23:35.258Z,60
2019-04-11T11:24:33.726Z,60
2019-04-11T11:25:32.774Z,55
2019-04-11T11:26:32.000Z,55
2019-04-11T11:27:30.200Z,55
2019-04-11T11:28:27.678Z,55
2019-04-11T11:29:26.605Z,55
2019-04-11T11:30:25.211Z,55
2019-04-11T11:31:24.397Z,55
2019-04-11T11:32:22.509Z,55
2019-04-11T11:33:22.189Z,55
2019-04-11T11:34:21.287Z,55
2019-04-11T11:35:22.374Z,55
2019-04-11T11:36:17.312Z,55
2019-04-11T11:37:15.732Z,55
2019-04-11T11:38:14.038Z,55
2019-04-11T11:39:13.038Z,55
2019-04-11T11:40:13.537Z,55
2019-04-11T11:41:09.810Z,60
2019-04-11T11:42:08.390Z,60
2019-04-11T11:43:06.969Z,60
2019-04-11T11:44:05.804Z,60
2019-04-11T11:45:05.551Z,60
2019-04-11T11:46:03.235Z,60
2019-04-11T11:47:03.396Z,60
2019-04-11T11:48:01.254Z,60
2019-04-11T11:49:00.494Z,60
2019-04-11T11:50:01.388Z,60
2019-04-11T11:50:57.081Z,60
2019-04-11T11:51:57.993Z,60
2019-04-11T11:52:53.575Z,60
2019-04-11T11:53:53.192Z,60
2019-04-11T11:54:51.531Z,60
2019-04-11T11:55:49.587Z,60
2019-04-11T11:56:48.925Z,60
2019-04-11T11:57:46.823Z,60
2019-04-11T11:58:51.739Z,60
2019-04-11T11:59:44.886Z,60
2019-04-11T12:00:42.817Z,60
2019-04-11T12:01:45.116Z,60
2019-04-11T12:02:40.184Z,60
2019-04-11T12:03:40.431Z,60
2019-04-11T12:04:39.013Z,60
2019-04-11T12:05:36.654Z,60
2019-04-11T12:06:35.437Z,60
2019-04-11T12:07:36.029Z,60
2019-04-11T12:08:32.741Z,60
2019-04-11T12:09:30.850Z,60
2019-04-11T12:10:29.232Z,60
2019-04-11T12:11:28.318Z,60
2019-04-11T12:12:27.395Z,60
2019-04-11T12:13:26.007Z,60
2019-04-11T12:14:24.255Z,60
2019-04-11T12:15:23.395Z,60
2019-04-11T12:16:21.984Z,60
2019-04-11T12:17:20.701Z,60
2019-04-11T12:18:19.815Z,60
2019-04-11T12:19:19.916Z,60
2019-04-11T12:20:16.508Z,60
2019-04-11T12:21:16.203Z,60
2019-04-11T12:22:12.856Z,60
2019-04-11T12:23:11.448Z,60
2019-04-11T12:24:11.317Z,60
2019-04-11T12:25:09.161Z,60
2019-04-11T12:26:07.533Z,60
2019-04-11T12:27:06.486Z,60
2019-04-11T12:28:07.627Z,60
2019-04-11T12:29:02.997Z,60
2019-04-11T12:30:04.280Z,60
2019-04-11T12:31:03.151Z,60
2019-04-11T12:31:59.864Z,60
2019-04-11T12:32:57.686Z,60
2019-04-11T12:33:57.529Z,60
2019-04-11T12:34:55.702Z,60
2019-04-11T12:35:54.753Z,60
2019-04-11T12:36:53.264Z,60
2019-04-11T12:37:52.928Z,60
2019-04-11T12:38:49.372Z,60
2019-04-11T12:39:48.234Z,60
2019-04-11T12:40:46.796Z,60
2019-04-11T12:41:45.322Z,60
2019-04-11T12:42:43.894Z,60
2019-04-11T12:43:42.451Z,60
2019-04-11T12:44:41.079Z,60
2019-04-11T12:45:39.721Z,60
2019-04-11T12:46:38.382Z,60
2019-04-11T12:47:38.538Z,60
2019-04-11T12:48:35.489Z,60
2019-04-11T12:49:34.114Z,60
2019-04-11T12:50:32.631Z,60
2019-04-11T12:51:31.172Z,60
2019-04-11T12:52:29.961Z,60
2019-04-11T12:53:28.566Z,60
2019-04-11T12:54:27.093Z,60
2019-04-11T12:55:25.682Z,60
2019-04-11T12:56:24.224Z,60
2019-04-11T12:57:22.816Z,60
2019-04-11T12:58:21.476Z,60
2019-04-11T12:59:20.167Z,60
2019-04-11T13:00:18.761Z,60
2019-04-11T13:01:17.318Z,60
2019-04-11T13:02:15.986Z,60
2019-04-11T13:03:14.532Z,60
2019-04-11T13:04:13.086Z,60
2019-04-11T13:05:11.691Z,60
2019-04-11T13:06:10.226Z,60
2019-04-11T13:07:08.756Z,60
2019-04-11T13:08:07.316Z,60
2019-04-11T13:09:05.886Z,60
2019-04-11T13:10:04.465Z,60
2019-04-11T13:11:03.061Z,60
2019-04-11T13:12:01.874Z,60
2019-04-11T13:13:00.517Z,60
2019-04-11T13:13:59.108Z,60
2019-04-11T13:14:57.801Z,60
2019-04-11T13:15:56.453Z,60
2019-04-11T13:16:55.118Z,60
2019-04-11T13:17:54.088Z,60
2019-04-11T13:18:52.650Z,60
2019-04-11T13:19:51.237Z,60
2019-04-11T13:20:49.926Z,60
2019-04-11T13:21:48.599Z,60
2019-04-11T13:22:47.331Z,60
2019-04-11T13:23:46.163Z,60
2019-04-11T13:24:44.820Z,60
2019-04-11T13:28:24.119Z,60
2019-04-11T13:29:22.705Z,60
2019-04-11T13:30:21.350Z,60
2019-04-11T13:31:20.309Z,60
2019-04-11T13:32:18.781Z,60
2019-04-11T13:33:17.571Z,60
2019-04-11T13:34:16.235Z,60
2019-04-11T13:35:14.841Z,60
2019-04-11T13:56:42.394Z,60
2019-04-11T13:57:41.150Z,60
2019-04-11T13:58:39.692Z,65
2019-04-11T13:59:38.247Z,60
2019-04-11T14:00:36.854Z,60
2019-04-11T14:01:35.453Z,60
2019-04-11T14:02:34.159Z,60
2019-04-11T14:03:32.975Z,60
2019-04-11T14:04:31.569Z,60
2019-04-11T14:05:30.226Z,60
2019-04-11T14:06:28.776Z,60
2019-04-11T14:07:27.409Z,60
2019-04-11T14:08:26.317Z,60
2019-04-11T14:09:24.915Z,60
2019-04-11T14:10:23.630Z,60
2019-04-11T14:11:22.266Z,60
2019-04-11T14:12:20.823Z,60
2019-04-11T14:13:19.489Z,60
2019-04-11T14:14:18.328Z,60
2019-04-11T14:15:16.924Z,60
2019-04-11T14:16:15.640Z,60
2019-04-11T14:17:14.573Z,60
2019-04-11T14:18:13.223Z,60
2019-04-11T14:19:12.876Z,60
2019-04-11T14:20:11.561Z,60
2019-04-11T14:21:11.267Z,60
2019-04-11T14:22:07.790Z,60
2019-04-11T14:23:06.411Z,60
2019-04-11T14:24:05.162Z,60
2019-04-11T14:25:03.701Z,60
2019-04-11T14:26:02.418Z,60
2019-04-11T14:27:01.034Z,60
2019-04-11T14:27:59.795Z,60
2019-04-11T14:28:58.412Z,60
2019-04-11T14:29:57.183Z,60
2019-04-11T14:30:56.154Z,60
2019-04-11T14:31:54.767Z,60
2019-04-11T14:32:53.926Z,60
2019-04-11T14:33:55.464Z,60
2019-04-11T14:34:50.811Z,55
2019-04-11T14:35:49.401Z,55
2019-04-11T14:36:48.229Z,55
2019-04-11T14:37:46.781Z,55
2019-04-11T14:38:48.052Z,55
2019-04-11T14:39:43.988Z,55
2019-04-11T14:40:42.673Z,55
2019-04-11T14:41:41.662Z,55
2019-04-11T14:42:45.694Z,55
2019-04-11T14:43:38.597Z,55
2019-04-11T14:44:37.164Z,55
2019-04-11T14:45:36.571Z,55
2019-04-11T14:46:36.485Z,55
2019-04-11T14:47:34.748Z,55
2019-04-11T14:48:31.759Z,55
2019-04-11T14:49:30.299Z,55
2019-04-11T14:50:40.238Z,55
2019-04-11T14:51:27.604Z,55
2019-04-11T14:52:26.293Z,55
2019-04-11T14:53:24.858Z,55
2019-04-11T14:54:23.497Z,55
2019-04-11T14:55:22.269Z,55
2019-04-11T14:56:22.080Z,55
2019-04-11T14:57:22.711Z,55
2019-04-11T14:58:18.007Z,55
2019-04-11T14:59:16.548Z,55
2019-04-11T15:00:15.187Z,55
2019-04-11T15:02:55.595Z,55
2019-04-11T15:03:54.244Z,55
2019-04-11T15:29:37.383Z,50
2019-04-11T15:30:36.012Z,50
2019-04-11T15:31:39.368Z,50
2019-04-11T15:32:33.170Z,50
2019-04-11T15:33:31.831Z,50
2019-04-11T15:34:30.480Z,50
2019-04-11T15:35:29.121Z,50
2019-04-11T15:36:28.443Z,50
2019-04-11T15:37:28.080Z,55
2019-04-11T15:38:24.980Z,50
2019-04-11T15:39:23.537Z,50
2019-04-11T15:40:22.089Z,50
2019-04-11T15:41:20.742Z,50
2019-04-11T15:42:19.338Z,50
2019-04-11T15:43:18.101Z,50
2019-04-11T15:44:16.659Z,50
2019-04-11T15:45:15.221Z,50
2019-04-11T15:46:14.644Z,50
2019-04-11T15:47:12.648Z,50
2019-04-11T15:48:11.161Z,50
2019-04-11T15:49:19.873Z,50
2019-04-11T15:50:08.538Z,50
2019-04-11T15:51:07.190Z,50
2019-04-11T15:52:06.780Z,50
2019-04-11T15:53:06.494Z,50
2019-04-11T15:54:04.670Z,45